createdAt,value
2018-05-02T00:01:59.356Z,62.18
2018-05-02T00:04:27.257Z,63.04
2018-05-02T00:06:54.808Z,63.43
2018-05-02T00:09:22.608Z,63.35
2018-05-02T00:11:50.197Z,63.83
2018-05-02T00:14:17.760Z,64.06
2018-05-02T00:16:45.376Z,63.63
2018-05-02T00:19:13.179Z,64.57
2018-05-02T00:21:40.749Z,64.83
2018-05-02T00:24:08.349Z,64.69
2018-05-02T00:26:36.109Z,64.36
2018-05-02T00:29:03.744Z,63.33
2018-05-02T00:31:31.274Z,64.48
2018-05-02T00:33:58.884Z,64.85
2018-05-02T00:36:26.461Z,64.52
2018-05-02T00:38:54.032Z,65.24
2018-05-02T00:41:21.653Z,65.72
2018-05-02T00:43:49.216Z,66.65
2018-05-02T00:46:17.776Z,66.88
2018-05-02T00:48:57.285Z,66.80
2018-05-02T00:51:24.958Z,66.88
2018-05-02T00:53:52.715Z,67.49
2018-05-02T00:56:20.494Z,67.90
2018-05-02T00:58:48.053Z,68.21
2018-05-02T01:01:15.617Z,68.39
2018-05-02T01:03:43.167Z,68.09
2018-05-02T01:06:10.907Z,67.96
2018-05-02T01:08:38.463Z,67.57
2018-05-02T01:11:06.153Z,67.83
2018-05-02T01:13:33.798Z,68.09
2018-05-02T01:16:01.538Z,68.25
2018-05-02T01:18:29.356Z,68.47
2018-05-02T01:20:57.047Z,68.53
2018-05-02T01:23:24.793Z,68.95
2018-05-02T01:25:52.416Z,69.23
2018-05-02T01:28:20.000Z,69.20
2018-05-02T01:30:47.753Z,69.02
2018-05-02T01:33:15.465Z,69.21
2018-05-02T01:35:43.284Z,69.22
2018-05-02T01:38:10.852Z,69.52
2018-05-02T01:40:38.512Z,69.78
2018-05-02T01:43:06.323Z,69.67
2018-05-02T01:45:33.920Z,69.72
2018-05-02T01:48:01.777Z,69.78
2018-05-02T01:50:29.498Z,69.82
2018-05-02T01:52:57.213Z,69.59
2018-05-02T01:55:24.788Z,69.57
2018-05-02T01:57:52.934Z,69.64
2018-05-02T02:00:20.738Z,69.92
2018-05-02T02:02:48.338Z,70.12
2018-05-02T02:05:16.071Z,70.40
2018-05-02T02:07:43.640Z,70.27
2018-05-02T02:10:11.249Z,70.80
2018-05-02T02:12:38.825Z,70.70
2018-05-02T02:15:06.446Z,70.77
2018-05-02T02:17:34.297Z,70.62
2018-05-02T02:20:01.865Z,69.64
2018-05-02T02:22:29.637Z,70.04
2018-05-02T02:24:57.213Z,70.44
2018-05-02T02:27:24.971Z,70.52
2018-05-02T02:29:52.705Z,70.49
2018-05-02T02:32:20.258Z,70.77
2018-05-02T02:34:48.094Z,71.00
2018-05-02T02:37:15.744Z,71.45
2018-05-02T02:39:43.305Z,71.80
2018-05-02T02:42:11.082Z,72.23
2018-05-02T02:44:38.896Z,72.38
2018-05-02T02:47:06.490Z,72.42
2018-05-02T02:49:34.053Z,72.16
2018-05-02T02:52:01.639Z,71.87
2018-05-02T02:54:29.241Z,71.75
2018-05-02T02:56:57.087Z,71.66
2018-05-02T02:59:24.685Z,72.30
2018-05-02T03:01:52.403Z,72.85
2018-05-02T03:04:20.114Z,73.49
2018-05-02T03:06:47.751Z,73.46
2018-05-02T03:09:15.332Z,73.59
2018-05-02T03:11:42.905Z,73.68
2018-05-02T03:14:10.490Z,73.56
2018-05-02T03:16:38.108Z,73.41
2018-05-02T03:19:05.780Z,72.92
2018-05-02T03:21:33.356Z,73.41
2018-05-02T03:24:00.939Z,73.22
2018-05-02T03:26:28.673Z,72.95
2018-05-02T03:28:56.523Z,72.40
2018-05-02T03:31:24.342Z,72.51
2018-05-02T03:33:51.950Z,72.80
2018-05-02T03:36:19.733Z,73.06
2018-05-02T03:38:47.410Z,73.56
2018-05-02T03:41:15.214Z,73.56
2018-05-02T03:43:42.946Z,73.48
2018-05-02T03:46:10.481Z,73.22
2018-05-02T03:48:38.269Z,73.22
2018-05-02T03:51:06.086Z,73.32
2018-05-02T03:53:33.656Z,73.01
2018-05-02T03:56:01.290Z,72.60
2018-05-02T03:58:28.848Z,72.82
2018-05-02T04:01:08.148Z,72.69
2018-05-02T04:03:47.749Z,72.31
2018-05-02T04:06:35.320Z,72.60
2018-05-02T04:09:02.912Z,72.31
2018-05-02T04:11:30.568Z,72.06
2018-05-02T04:13:58.300Z,71.57
2018-05-02T04:16:25.994Z,71.05
2018-05-02T04:18:53.580Z,71.29
2018-05-02T04:21:21.179Z,71.39
2018-05-02T04:23:48.972Z,71.01
2018-05-02T04:26:16.558Z,70.79
2018-05-02T04:28:44.279Z,71.23
2018-05-02T04:31:11.950Z,71.08
2018-05-02T04:33:39.748Z,70.97
2018-05-02T04:36:07.373Z,70.71
2018-05-02T04:38:34.941Z,70.59
2018-05-02T04:41:02.608Z,70.74
2018-05-02T04:43:30.435Z,71.10
2018-05-02T04:45:57.993Z,70.97
2018-05-02T04:48:25.631Z,70.77
2018-05-02T04:50:53.372Z,70.47
2018-05-02T04:53:21.073Z,70.40
2018-05-02T04:55:48.810Z,70.10
2018-05-02T04:58:16.385Z,69.94
2018-05-02T05:00:44.056Z,69.98
2018-05-02T05:03:11.814Z,69.84
2018-05-02T05:05:39.577Z,68.46
2018-05-02T05:08:07.194Z,68.04
2018-05-02T05:10:35.027Z,67.64
2018-05-02T05:13:02.654Z,67.65
2018-05-02T05:15:30.230Z,66.68
2018-05-02T05:17:57.972Z,66.53
2018-05-02T05:20:25.541Z,65.53
2018-05-02T05:22:53.293Z,63.49
2018-05-02T05:25:20.908Z,61.86
2018-05-02T05:27:48.724Z,59.59
2018-05-02T05:30:16.233Z,57.70
2018-05-02T05:32:43.871Z,54.99
2018-05-02T05:35:11.431Z,52.88
2018-05-02T05:37:39.087Z,50.67
2018-05-02T05:40:06.648Z,48.42
2018-05-02T05:42:34.452Z,46.54
2018-05-02T05:45:02.100Z,44.87
2018-05-02T05:47:29.790Z,43.71
2018-05-02T05:49:57.364Z,41.82
2018-05-02T05:52:24.942Z,40.02
2018-05-02T05:54:52.569Z,38.85
2018-05-02T05:57:20.130Z,35.84
2018-05-02T05:59:47.692Z,35.09
2018-05-02T06:02:15.498Z,34.04
2018-05-02T06:04:43.052Z,33.37
2018-05-02T06:07:10.833Z,33.62
2018-05-02T06:09:38.392Z,31.50
2018-05-02T06:12:06.014Z,30.20
2018-05-02T06:14:33.770Z,30.06
2018-05-02T06:17:01.328Z,29.98
2018-05-02T06:19:28.900Z,29.15
2018-05-02T06:21:56.617Z,28.79
2018-05-02T06:24:24.181Z,27.81
2018-05-02T06:26:51.869Z,26.70
2018-05-02T06:29:19.696Z,26.02
2018-05-02T06:31:47.517Z,26.71
2018-05-02T06:34:15.126Z,26.56
2018-05-02T06:36:42.697Z,27.00
2018-05-02T06:39:10.259Z,26.60
2018-05-02T06:41:38.089Z,26.65
2018-05-02T06:44:05.665Z,26.95
2018-05-02T06:46:33.277Z,26.62
2018-05-02T06:49:00.837Z,26.71
2018-05-02T06:51:28.400Z,25.50
2018-05-02T06:53:55.968Z,25.33
2018-05-02T06:56:23.520Z,25.43
2018-05-02T06:58:51.105Z,25.62
2018-05-02T07:01:18.657Z,25.33
2018-05-02T07:03:46.272Z,25.55
2018-05-02T07:06:13.832Z,24.99
2018-05-02T07:08:41.392Z,25.08
2018-05-02T07:11:08.972Z,24.14
2018-05-02T07:13:36.605Z,23.90
2018-05-02T07:16:04.270Z,23.59
2018-05-02T07:18:31.836Z,22.95
2018-05-02T07:20:59.424Z,23.03
2018-05-02T07:23:27.191Z,22.82
2018-05-02T07:25:54.762Z,22.74
2018-05-02T07:28:22.385Z,22.27
2018-05-02T07:30:49.952Z,21.93
2018-05-02T07:33:17.769Z,22.94
2018-05-02T07:35:45.373Z,22.83
2018-05-02T07:38:13.100Z,23.30
2018-05-02T07:40:40.713Z,23.65
2018-05-02T07:43:08.433Z,23.64
2018-05-02T07:45:35.988Z,25.09
2018-05-02T07:48:03.742Z,24.60
2018-05-02T07:50:31.400Z,24.28
2018-05-02T07:52:58.985Z,24.55
2018-05-02T07:55:26.678Z,24.43
2018-05-02T07:57:54.268Z,24.35
2018-05-02T08:00:21.829Z,24.08
2018-05-02T08:02:49.583Z,23.91
2018-05-02T08:05:17.214Z,23.73
2018-05-02T08:07:44.776Z,23.92
2018-05-02T08:10:12.498Z,23.84
2018-05-02T08:12:40.057Z,24.60
2018-05-02T08:15:07.669Z,25.30
2018-05-02T08:17:35.224Z,24.20
2018-05-02T08:20:02.783Z,22.86
2018-05-02T08:22:30.464Z,23.54
2018-05-02T08:24:58.244Z,21.87
2018-05-02T08:27:25.816Z,24.64
2018-05-02T08:29:53.581Z,24.71
2018-05-02T08:32:21.188Z,24.81
2018-05-02T08:34:48.748Z,24.08
2018-05-02T08:37:16.533Z,23.07
2018-05-02T08:39:44.149Z,21.74
2018-05-02T08:42:11.701Z,21.38
2018-05-02T08:44:39.273Z,20.26
2018-05-02T08:47:07.007Z,20.47
2018-05-02T08:49:34.824Z,18.84
2018-05-02T08:52:02.380Z,17.39
2018-05-02T08:54:29.937Z,17.21
2018-05-02T08:56:57.678Z,17.15
2018-05-02T08:59:25.465Z,17.83
2018-05-02T09:01:53.096Z,19.12
2018-05-02T09:04:20.676Z,20.22
2018-05-02T09:06:49.184Z,20.13
2018-05-02T09:09:16.745Z,20.23
2018-05-02T09:11:44.297Z,21.15
2018-05-02T09:14:11.897Z,21.40
2018-05-02T09:16:39.625Z,20.69
2018-05-02T09:19:07.195Z,20.71
2018-05-02T09:21:34.750Z,21.45
2018-05-02T09:24:02.337Z,21.55
2018-05-02T09:26:29.960Z,22.72
2018-05-02T09:28:57.718Z,21.23
2018-05-02T09:31:25.310Z,21.04
2018-05-02T09:33:52.868Z,22.46
2018-05-02T09:36:20.476Z,22.95
2018-05-02T09:38:48.289Z,22.24
2018-05-02T09:41:15.979Z,22.22
2018-05-02T09:43:43.697Z,22.63
2018-05-02T09:46:11.412Z,23.37
2018-05-02T09:48:38.980Z,23.64
2018-05-02T09:51:06.541Z,23.24
2018-05-02T09:53:34.164Z,23.69
2018-05-02T09:56:01.818Z,24.32
2018-05-02T09:58:29.372Z,23.59
2018-05-02T10:00:57.061Z,22.62
2018-05-02T10:03:24.620Z,25.20
2018-05-02T10:05:52.371Z,22.00
2018-05-02T10:08:20.103Z,22.29
2018-05-02T10:10:47.813Z,21.35
2018-05-02T10:13:15.446Z,21.28
2018-05-02T10:15:43.012Z,22.35
2018-05-02T10:18:10.577Z,23.08
2018-05-02T10:20:38.178Z,21.80
2018-05-02T10:23:06.016Z,21.77
2018-05-02T10:25:33.617Z,20.83
2018-05-02T10:28:01.318Z,20.61
2018-05-02T10:30:28.916Z,21.39
2018-05-02T10:32:56.473Z,22.18
2018-05-02T10:35:24.092Z,23.02
2018-05-02T10:37:51.919Z,22.62
2018-05-02T10:40:19.738Z,22.56
2018-05-02T10:42:47.459Z,21.62
2018-05-02T10:45:15.075Z,21.11
2018-05-02T10:47:42.648Z,22.47
2018-05-02T10:50:10.279Z,24.61
2018-05-02T10:52:37.999Z,24.29
2018-05-02T10:55:05.559Z,24.63
2018-05-02T10:57:33.134Z,24.23
2018-05-02T11:00:00.742Z,24.58
2018-05-02T11:02:28.424Z,24.67
2018-05-02T11:04:56.120Z,25.46
2018-05-02T11:07:23.678Z,25.13
2018-05-02T11:09:52.602Z,25.37
2018-05-02T11:12:20.212Z,24.24
2018-05-02T11:14:47.783Z,24.48
2018-05-02T11:17:15.538Z,24.44
2018-05-02T11:19:43.132Z,25.04
2018-05-02T11:22:10.728Z,24.28
2018-05-02T11:24:38.281Z,24.80
2018-05-02T11:27:06.249Z,23.89
2018-05-02T11:29:33.804Z,24.28
2018-05-02T11:32:01.375Z,25.10
2018-05-02T11:34:28.999Z,24.16
2018-05-02T11:36:56.624Z,24.12
2018-05-02T11:39:24.179Z,25.65
2018-05-02T11:41:51.865Z,24.59
2018-05-02T11:44:19.449Z,24.60
2018-05-02T11:46:46.986Z,23.17
2018-05-02T11:49:14.729Z,23.69
2018-05-02T11:51:42.697Z,23.80
2018-05-02T11:54:10.318Z,24.42
2018-05-02T11:56:38.005Z,25.32
2018-05-02T11:59:05.563Z,23.92
2018-05-02T12:01:33.146Z,23.09
2018-05-02T12:04:00.689Z,22.95
2018-05-02T12:06:28.260Z,23.60
2018-05-02T12:08:55.834Z,24.46
2018-05-02T12:11:23.426Z,24.48
2018-05-02T12:13:51.038Z,25.46
2018-05-02T12:16:18.766Z,25.05
2018-05-02T12:18:46.318Z,25.38
2018-05-02T12:21:13.894Z,25.29
2018-05-02T12:23:41.464Z,25.94
2018-05-02T12:26:09.136Z,25.83
2018-05-02T12:28:36.823Z,26.20
2018-05-02T12:31:04.408Z,26.71
2018-05-02T12:33:31.957Z,26.07
2018-05-02T12:35:59.582Z,26.58
2018-05-02T12:38:27.189Z,25.21
2018-05-02T12:40:54.839Z,25.63
2018-05-02T12:43:22.438Z,26.86
2018-05-02T12:45:50.053Z,27.19
2018-05-02T12:48:17.624Z,27.81
2018-05-02T12:50:45.183Z,26.96
2018-05-02T12:53:12.814Z,27.19
2018-05-02T12:55:40.380Z,27.12
2018-05-02T12:58:07.994Z,27.67
2018-05-02T13:00:35.563Z,28.17
2018-05-02T13:03:03.229Z,28.05
2018-05-02T13:05:30.845Z,27.94
2018-05-02T13:07:58.414Z,28.41
2018-05-02T13:10:25.996Z,29.02
2018-05-02T13:12:53.617Z,29.53
2018-05-02T13:15:21.230Z,29.17
2018-05-02T13:17:48.911Z,28.81
2018-05-02T13:20:16.521Z,28.79
2018-05-02T13:22:44.181Z,29.42
2018-05-02T13:25:11.722Z,29.23
2018-05-02T13:27:39.374Z,29.27
2018-05-02T13:30:06.944Z,27.78
2018-05-02T13:32:34.495Z,28.26
2018-05-02T13:35:02.127Z,28.41
2018-05-02T13:37:29.736Z,28.83
2018-05-02T13:39:57.404Z,27.77
2018-05-02T13:42:25.017Z,28.21
2018-05-02T13:44:52.614Z,28.64
2018-05-02T13:47:20.169Z,27.62
2018-05-02T13:49:47.836Z,27.89
2018-05-02T13:52:15.410Z,28.72
2018-05-02T13:54:43.259Z,28.83
2018-05-02T13:57:10.880Z,28.57
2018-05-02T13:59:38.608Z,29.03
2018-05-02T14:02:06.320Z,29.34
2018-05-02T14:04:33.884Z,28.50
2018-05-02T14:07:01.447Z,28.99
2018-05-02T14:09:29.077Z,29.18
2018-05-02T14:11:56.809Z,30.31
2018-05-02T14:14:24.481Z,29.64
2018-05-02T14:16:52.249Z,29.61
2018-05-02T14:19:19.822Z,30.49
2018-05-02T14:21:47.388Z,31.17
2018-05-02T14:24:14.954Z,31.17
2018-05-02T14:26:42.505Z,31.60
2018-05-02T14:29:10.056Z,31.73
2018-05-02T14:31:37.851Z,31.38
2018-05-02T14:34:05.505Z,31.84
2018-05-02T14:36:33.079Z,32.43
2018-05-02T14:39:00.702Z,32.87
2018-05-02T14:41:28.257Z,32.87
2018-05-02T14:43:55.823Z,33.17
2018-05-02T14:46:23.392Z,33.87
2018-05-02T14:48:51.034Z,34.21
2018-05-02T14:51:18.584Z,34.12
2018-05-02T14:53:46.180Z,34.83
2018-05-02T14:56:13.765Z,34.47
2018-05-02T14:58:41.345Z,34.83
2018-05-02T15:01:08.920Z,34.32
2018-05-02T15:03:36.542Z,34.91
2018-05-02T15:06:04.233Z,35.03
2018-05-02T15:08:31.861Z,35.08
2018-05-02T15:10:59.540Z,35.67
2018-05-02T15:13:27.125Z,35.56
2018-05-02T15:15:54.701Z,34.88
2018-05-02T15:18:22.342Z,34.97
2018-05-02T15:20:49.895Z,35.62
2018-05-02T15:23:17.504Z,35.92
2018-05-02T15:25:45.255Z,36.32
2018-05-02T15:28:13.071Z,36.85
2018-05-02T15:30:40.789Z,36.63
2018-05-02T15:33:08.502Z,36.73
2018-05-02T15:35:36.149Z,37.14
2018-05-02T15:38:03.832Z,37.79
2018-05-02T15:40:31.393Z,37.49
2018-05-02T15:42:59.178Z,37.43
2018-05-02T15:45:26.805Z,37.85
2018-05-02T15:47:54.445Z,38.15
2018-05-02T15:50:22.140Z,38.58
2018-05-02T15:52:49.785Z,38.57
2018-05-02T15:55:17.560Z,39.00
2018-05-02T15:57:45.390Z,39.18
2018-05-02T16:00:12.976Z,39.32
2018-05-02T16:02:40.538Z,39.67
2018-05-02T16:05:08.140Z,39.73
2018-05-02T16:07:35.828Z,39.74
2018-05-02T16:10:03.520Z,39.74
2018-05-02T16:12:31.183Z,39.83
2018-05-02T16:14:58.903Z,40.15
2018-05-02T16:17:26.729Z,40.48
2018-05-02T16:19:54.320Z,40.62
2018-05-02T16:22:21.889Z,40.56
2018-05-02T16:24:49.440Z,40.60
2018-05-02T16:27:17.079Z,40.88
2018-05-02T16:29:44.689Z,40.82
2018-05-02T16:32:12.301Z,40.73
2018-05-02T16:34:39.956Z,40.94
2018-05-02T16:37:07.589Z,40.93
2018-05-02T16:39:35.148Z,40.98
2018-05-02T16:42:02.757Z,41.03
2018-05-02T16:44:30.453Z,40.99
2018-05-02T16:46:58.070Z,41.02
2018-05-02T16:49:25.681Z,40.80
2018-05-02T16:51:53.305Z,40.96
2018-05-02T16:54:20.978Z,40.88
2018-05-02T16:56:48.536Z,40.77
2018-05-02T16:59:16.163Z,40.72
2018-05-02T17:01:43.853Z,40.33
2018-05-02T17:04:11.531Z,40.32
2018-05-02T17:06:39.034Z,40.36
2018-05-02T17:09:06.656Z,40.20
2018-05-02T17:11:34.290Z,40.51
2018-05-02T17:14:01.934Z,40.13
2018-05-02T17:16:29.517Z,39.83
2018-05-02T17:18:57.382Z,39.67
2018-05-02T17:21:24.998Z,40.09
2018-05-02T17:23:52.555Z,39.99
2018-05-02T17:26:20.117Z,39.92
2018-05-02T17:28:47.751Z,39.89
2018-05-02T17:31:15.319Z,40.08
2018-05-02T17:33:42.931Z,40.50
2018-05-02T17:36:10.596Z,40.08
2018-05-02T17:38:38.217Z,40.45
2018-05-02T17:41:05.808Z,40.61
2018-05-02T17:43:33.396Z,40.56
2018-05-02T17:46:01.021Z,40.34
2018-05-02T17:48:28.632Z,40.61
2018-05-02T17:50:56.189Z,40.73
2018-05-02T17:53:23.744Z,40.79
2018-05-02T17:55:51.294Z,40.64
2018-05-02T17:58:18.854Z,40.55
2018-05-02T18:00:46.504Z,40.43
2018-05-02T18:03:14.224Z,40.41
2018-05-02T18:05:42.019Z,40.74
2018-05-02T18:08:09.713Z,40.66
2018-05-02T18:10:37.275Z,40.58
2018-05-02T18:13:04.959Z,40.60
2018-05-02T18:15:32.533Z,40.68
2018-05-02T18:18:00.101Z,41.10
2018-05-02T18:20:27.729Z,40.97
2018-05-02T18:22:55.327Z,41.23
2018-05-02T18:25:22.914Z,40.57
2018-05-02T18:27:50.474Z,40.72
2018-05-02T18:30:18.035Z,40.26
2018-05-02T18:32:45.707Z,40.19
2018-05-02T18:35:13.435Z,40.85
2018-05-02T18:37:41.114Z,40.25
2018-05-02T18:40:08.972Z,40.41
2018-05-02T18:42:36.557Z,40.78
2018-05-02T18:45:04.157Z,40.98
2018-05-02T18:47:31.799Z,40.79
2018-05-02T18:49:59.372Z,40.90
2018-05-02T18:52:26.946Z,40.83
2018-05-02T18:54:54.497Z,40.21
2018-05-02T18:57:22.186Z,40.69
2018-05-02T18:59:49.917Z,40.75
2018-05-02T19:02:17.477Z,40.73
2018-05-02T19:04:45.152Z,41.18
2018-05-02T19:07:12.721Z,41.71
2018-05-02T19:09:40.469Z,41.64
2018-05-02T19:12:08.056Z,41.81
2018-05-02T19:14:35.665Z,42.25
2018-05-02T19:17:03.260Z,42.15
2018-05-02T19:19:36.386Z,41.93
2018-05-02T19:22:04.200Z,42.61
2018-05-02T19:24:37.472Z,42.95
2018-05-02T19:27:05.134Z,42.97
2018-05-02T19:29:32.763Z,43.12
2018-05-02T19:32:05.770Z,43.59
2018-05-02T19:34:33.526Z,43.64
2018-05-02T19:37:01.139Z,43.20
2018-05-02T19:39:28.728Z,43.48
2018-05-02T19:42:02.013Z,43.73
2018-05-02T19:44:29.819Z,44.35
2018-05-02T19:46:57.389Z,44.61
2018-05-02T19:49:24.965Z,45.06
2018-05-02T19:51:58.148Z,45.07
2018-05-02T19:54:25.758Z,45.33
2018-05-02T19:56:53.370Z,45.69
2018-05-02T19:59:21.119Z,45.64
2018-05-02T20:01:54.192Z,46.07
2018-05-02T20:04:21.906Z,46.28
2018-05-02T20:06:49.468Z,46.71
2018-05-02T20:09:22.650Z,47.10
2018-05-02T20:11:55.897Z,47.69
2018-05-02T20:14:23.715Z,48.15
2018-05-02T20:16:51.532Z,48.27
2018-05-02T20:19:19.075Z,48.24
2018-05-02T20:21:46.640Z,48.68
2018-05-02T20:24:14.192Z,49.00
2018-05-02T20:26:42.008Z,49.07
2018-05-02T20:29:09.612Z,49.47
2018-05-02T20:31:37.441Z,48.93
2018-05-02T20:34:04.997Z,49.15
2018-05-02T20:36:32.578Z,49.51
2018-05-02T20:39:00.133Z,49.92
2018-05-02T20:41:27.694Z,50.14
2018-05-02T20:43:55.398Z,50.49
2018-05-02T20:46:23.164Z,50.74
2018-05-02T20:48:50.771Z,51.07
2018-05-02T20:51:18.589Z,51.06
2018-05-02T20:53:46.157Z,51.37
2018-05-02T20:56:13.921Z,51.38
2018-05-02T20:58:41.639Z,51.61
2018-05-02T21:01:09.204Z,51.92
2018-05-02T21:03:36.761Z,51.86
2018-05-02T21:06:04.388Z,52.01
2018-05-02T21:08:32.111Z,51.82
2018-05-02T21:10:59.668Z,51.74
2018-05-02T21:13:27.232Z,51.90
2018-05-02T21:15:54.940Z,52.00
2018-05-02T21:18:22.574Z,52.18
2018-05-02T21:20:50.106Z,52.57
2018-05-02T21:23:17.919Z,52.54
2018-05-02T21:25:45.488Z,52.83
2018-05-02T21:28:13.131Z,53.27
2018-05-02T21:30:40.842Z,53.52
2018-05-02T21:33:08.381Z,54.02
2018-05-02T21:35:35.988Z,54.02
2018-05-02T21:38:03.694Z,54.01
2018-05-02T21:40:31.251Z,54.17
2018-05-02T21:42:59.065Z,54.02
2018-05-02T21:45:26.631Z,54.08
2018-05-02T21:47:54.236Z,54.42
2018-05-02T21:50:21.792Z,54.32
2018-05-02T21:52:49.341Z,54.38
2018-05-02T21:55:17.153Z,54.84
2018-05-02T21:57:44.713Z,54.96
2018-05-02T22:00:12.468Z,56.73
2018-05-02T22:02:40.192Z,57.33
2018-05-02T22:05:07.804Z,57.88
2018-05-02T22:07:35.365Z,58.55
2018-05-02T22:10:03.162Z,58.51
2018-05-02T22:12:30.737Z,58.53
2018-05-02T22:14:58.293Z,57.91
2018-05-02T22:17:25.984Z,57.48
2018-05-02T22:19:53.550Z,57.52
2018-05-02T22:22:21.352Z,57.58
2018-05-02T22:24:48.900Z,57.67
2018-05-02T22:27:16.452Z,57.81
2018-05-02T22:29:44.017Z,57.94
2018-05-02T22:32:11.572Z,58.10
2018-05-02T22:34:39.133Z,59.19
2018-05-02T22:37:06.823Z,60.25
2018-05-02T22:39:34.441Z,61.01
2018-05-02T22:42:02.196Z,60.88
2018-05-02T22:44:29.792Z,60.24
2018-05-02T22:46:57.368Z,61.29
2018-05-02T22:49:24.924Z,61.37
2018-05-02T22:51:52.488Z,60.48
2018-05-02T22:54:20.044Z,60.03
2018-05-02T22:56:47.656Z,59.97
2018-05-02T22:59:15.306Z,59.98
2018-05-02T23:01:42.856Z,60.16
2018-05-02T23:04:10.656Z,60.76
2018-05-02T23:06:38.212Z,61.25
2018-05-02T23:09:05.776Z,61.12
2018-05-02T23:11:33.331Z,61.27
2018-05-02T23:14:01.132Z,61.49
2018-05-02T23:16:28.700Z,61.46
2018-05-02T23:18:56.260Z,61.89
2018-05-02T23:21:23.813Z,62.09
2018-05-02T23:23:51.517Z,62.33
2018-05-02T23:26:19.076Z,62.89
2018-05-02T23:28:46.628Z,63.30
2018-05-02T23:31:14.346Z,63.78
2018-05-02T23:33:41.972Z,63.90
2018-05-02T23:36:09.516Z,64.36
2018-05-02T23:38:37.100Z,64.55
2018-05-02T23:41:04.670Z,65.11
2018-05-02T23:43:32.236Z,65.34
2018-05-02T23:45:59.809Z,65.57
2018-05-02T23:48:27.564Z,65.60
2018-05-02T23:50:55.297Z,65.79
2018-05-02T23:53:22.861Z,66.85
2018-05-02T23:55:50.429Z,66.75
2018-05-02T23:58:18.032Z,66.60
